sensor_id;sensor_type;location;lat;lon;timestamp;P1;durP1;ratioP1;P2;durP2;ratioP2
52816;SDS011;38687;43.330;21.924;2023-12-20T00:02:16;65.47;;;36.20;;
52816;SDS011;38687;43.330;21.924;2023-12-20T00:04:41;73.38;;;34.42;;
52816;SDS011;38687;43.330;21.924;2023-12-20T00:07:07;67.10;;;33.15;;
52816;SDS011;38687;43.330;21.924;2023-12-20T00:09:32;89.88;;;40.40;;
52816;SDS011;38687;43.330;21.924;2023-12-20T00:11:57;60.60;;;32.17;;
52816;SDS011;38687;43.330;21.924;2023-12-20T00:14:23;71.53;;;33.35;;
52816;SDS011;38687;43.330;21.924;2023-12-20T00:16:48;82.22;;;38.00;;
52816;SDS011;38687;43.330;21.924;2023-12-20T00:19:14;96.97;;;45.97;;
52816;SDS011;38687;43.330;21.924;2023-12-20T00:21:39;97.68;;;43.97;;
52816;SDS011;38687;43.330;21.924;2023-12-20T00:24:05;124.95;;;54.75;;
52816;SDS011;38687;43.330;21.924;2023-12-20T00:26:30;109.22;;;49.53;;
52816;SDS011;38687;43.330;21.924;2023-12-20T00:28:55;121.72;;;48.92;;
52816;SDS011;38687;43.330;21.924;2023-12-20T00:31:21;95.68;;;39.70;;
52816;SDS011;38687;43.330;21.924;2023-12-20T00:33:46;81.40;;;32.80;;
52816;SDS011;38687;43.330;21.924;2023-12-20T00:36:12;59.20;;;26.30;;
52816;SDS011;38687;43.330;21.924;2023-12-20T00:38:37;41.25;;;23.13;;
52816;SDS011;38687;43.330;21.924;2023-12-20T00:41:03;49.67;;;27.67;;
52816;SDS011;38687;43.330;21.924;2023-12-20T00:43:28;51.47;;;27.63;;
52816;SDS011;38687;43.330;21.924;2023-12-20T00:45:54;61.22;;;28.30;;
52816;SDS011;38687;43.330;21.924;2023-12-20T00:48:21;63.17;;;29.35;;
52816;SDS011;38687;43.330;21.924;2023-12-20T00:50:47;101.97;;;46.53;;
52816;SDS011;38687;43.330;21.924;2023-12-20T00:53:12;140.48;;;60.83;;
52816;SDS011;38687;43.330;21.924;2023-12-20T00:55:37;103.03;;;47.58;;
52816;SDS011;38687;43.330;21.924;2023-12-20T00:58:03;94.85;;;44.60;;
52816;SDS011;38687;43.330;21.924;2023-12-20T01:00:28;80.57;;;38.20;;
52816;SDS011;38687;43.330;21.924;2023-12-20T01:02:54;95.72;;;43.35;;
52816;SDS011;38687;43.330;21.924;2023-12-20T01:05:19;109.10;;;46.30;;
52816;SDS011;38687;43.330;21.924;2023-12-20T01:07:48;96.50;;;46.17;;
52816;SDS011;38687;43.330;21.924;2023-12-20T01:10:14;88.47;;;41.83;;
52816;SDS011;38687;43.330;21.924;2023-12-20T01:12:39;98.70;;;46.70;;
52816;SDS011;38687;43.330;21.924;2023-12-20T01:15:05;82.80;;;43.50;;
52816;SDS011;38687;43.330;21.924;2023-12-20T01:17:30;77.53;;;40.67;;
52816;SDS011;38687;43.330;21.924;2023-12-20T01:19:56;98.68;;;41.05;;
52816;SDS011;38687;43.330;21.924;2023-12-20T01:22:21;73.15;;;38.53;;
52816;SDS011;38687;43.330;21.924;2023-12-20T01:24:47;84.82;;;41.28;;
52816;SDS011;38687;43.330;21.924;2023-12-20T01:27:12;91.93;;;42.72;;
52816;SDS011;38687;43.330;21.924;2023-12-20T01:29:37;80.57;;;36.40;;
52816;SDS011;38687;43.330;21.924;2023-12-20T01:32:03;64.20;;;34.25;;
52816;SDS011;38687;43.330;21.924;2023-12-20T01:34:29;66.70;;;35.08;;
52816;SDS011;38687;43.330;21.924;2023-12-20T01:36:54;69.07;;;34.97;;
52816;SDS011;38687;43.330;21.924;2023-12-20T01:39:20;69.47;;;33.58;;
52816;SDS011;38687;43.330;21.924;2023-12-20T01:41:45;75.18;;;35.85;;
52816;SDS011;38687;43.330;21.924;2023-12-20T01:44:11;95.25;;;43.38;;
52816;SDS011;38687;43.330;21.924;2023-12-20T01:46:36;86.95;;;40.05;;
52816;SDS011;38687;43.330;21.924;2023-12-20T01:49:03;107.65;;;49.83;;
52816;SDS011;38687;43.330;21.924;2023-12-20T01:51:28;109.93;;;48.10;;
52816;SDS011;38687;43.330;21.924;2023-12-20T01:53:55;123.07;;;49.38;;
52816;SDS011;38687;43.330;21.924;2023-12-20T01:56:21;111.22;;;52.55;;
52816;SDS011;38687;43.330;21.924;2023-12-20T01:58:47;119.65;;;53.25;;
52816;SDS011;38687;43.330;21.924;2023-12-20T02:01:12;131.65;;;56.47;;
52816;SDS011;38687;43.330;21.924;2023-12-20T02:03:39;120.05;;;53.47;;
52816;SDS011;38687;43.330;21.924;2023-12-20T02:06:08;104.90;;;49.50;;
52816;SDS011;38687;43.330;21.924;2023-12-20T02:08:34;122.43;;;50.22;;
52816;SDS011;38687;43.330;21.924;2023-12-20T02:11:00;98.05;;;42.55;;
52816;SDS011;38687;43.330;21.924;2023-12-20T02:13:25;89.57;;;38.03;;
52816;SDS011;38687;43.330;21.924;2023-12-20T02:15:51;78.93;;;36.15;;
52816;SDS011;38687;43.330;21.924;2023-12-20T02:18:17;72.68;;;35.38;;
52816;SDS011;38687;43.330;21.924;2023-12-20T02:20:43;54.53;;;28.90;;
52816;SDS011;38687;43.330;21.924;2023-12-20T02:23:08;64.90;;;33.38;;
52816;SDS011;38687;43.330;21.924;2023-12-20T02:25:34;102.15;;;46.58;;
52816;SDS011;38687;43.330;21.924;2023-12-20T02:27:59;85.25;;;44.22;;
52816;SDS011;38687;43.330;21.924;2023-12-20T02:30:25;92.00;;;43.15;;
52816;SDS011;38687;43.330;21.924;2023-12-20T02:32:51;103.68;;;43.65;;
52816;SDS011;38687;43.330;21.924;2023-12-20T02:35:16;81.00;;;41.13;;
52816;SDS011;38687;43.330;21.924;2023-12-20T02:37:41;76.95;;;37.17;;
52816;SDS011;38687;43.330;21.924;2023-12-20T02:40:07;75.47;;;34.38;;
52816;SDS011;38687;43.330;21.924;2023-12-20T02:42:33;71.63;;;34.47;;
52816;SDS011;38687;43.330;21.924;2023-12-20T02:44:58;73.60;;;35.08;;
52816;SDS011;38687;43.330;21.924;2023-12-20T02:47:24;59.60;;;28.50;;
52816;SDS011;38687;43.330;21.924;2023-12-20T02:49:49;52.40;;;29.25;;
52816;SDS011;38687;43.330;21.924;2023-12-20T02:52:15;61.65;;;32.70;;
52816;SDS011;38687;43.330;21.924;2023-12-20T02:54:40;64.88;;;31.88;;
52816;SDS011;38687;43.330;21.924;2023-12-20T02:57:06;71.43;;;34.17;;
52816;SDS011;38687;43.330;21.924;2023-12-20T02:59:31;63.67;;;32.08;;
52816;SDS011;38687;43.330;21.924;2023-12-20T03:01:57;62.30;;;32.47;;
52816;SDS011;38687;43.330;21.924;2023-12-20T03:04:22;52.13;;;30.33;;
52816;SDS011;38687;43.330;21.924;2023-12-20T03:06:47;71.60;;;36.10;;
52816;SDS011;38687;43.330;21.924;2023-12-20T03:09:13;81.40;;;37.88;;
52816;SDS011;38687;43.330;21.924;2023-12-20T03:11:38;62.83;;;34.28;;
52816;SDS011;38687;43.330;21.924;2023-12-20T03:14:04;68.68;;;34.60;;
52816;SDS011;38687;43.330;21.924;2023-12-20T03:16:29;78.85;;;38.55;;
52816;SDS011;38687;43.330;21.924;2023-12-20T03:18:56;75.95;;;36.30;;
52816;SDS011;38687;43.330;21.924;2023-12-20T03:21:21;74.22;;;34.42;;
52816;SDS011;38687;43.330;21.924;2023-12-20T03:23:47;57.08;;;29.05;;
52816;SDS011;38687;43.330;21.924;2023-12-20T03:26:12;63.55;;;31.13;;
52816;SDS011;38687;43.330;21.924;2023-12-20T03:28:39;68.80;;;30.42;;
52816;SDS011;38687;43.330;21.924;2023-12-20T03:31:04;66.45;;;34.40;;
52816;SDS011;38687;43.330;21.924;2023-12-20T03:33:30;69.93;;;34.53;;
52816;SDS011;38687;43.330;21.924;2023-12-20T03:35:55;93.05;;;41.85;;
52816;SDS011;38687;43.330;21.924;2023-12-20T03:38:21;74.10;;;36.90;;
52816;SDS011;38687;43.330;21.924;2023-12-20T03:40:48;95.28;;;45.10;;
52816;SDS011;38687;43.330;21.924;2023-12-20T03:43:14;90.85;;;39.65;;
52816;SDS011;38687;43.330;21.924;2023-12-20T03:45:40;101.57;;;43.13;;
52816;SDS011;38687;43.330;21.924;2023-12-20T03:48:05;83.15;;;39.03;;
52816;SDS011;38687;43.330;21.924;2023-12-20T03:50:31;77.97;;;36.20;;
52816;SDS011;38687;43.330;21.924;2023-12-20T03:52:56;62.65;;;30.80;;
52816;SDS011;38687;43.330;21.924;2023-12-20T03:55:22;68.40;;;32.55;;
52816;SDS011;38687;43.330;21.924;2023-12-20T03:57:48;70.70;;;36.80;;
52816;SDS011;38687;43.330;21.924;2023-12-20T04:00:13;92.80;;;39.42;;
52816;SDS011;38687;43.330;21.924;2023-12-20T04:02:39;68.10;;;36.50;;
52816;SDS011;38687;43.330;21.924;2023-12-20T04:05:05;69.80;;;36.58;;
52816;SDS011;38687;43.330;21.924;2023-12-20T04:07:31;71.97;;;34.38;;
52816;SDS011;38687;43.330;21.924;2023-12-20T04:09:57;62.28;;;35.13;;
52816;SDS011;38687;43.330;21.924;2023-12-20T04:12:22;64.30;;;36.10;;
52816;SDS011;38687;43.330;21.924;2023-12-20T04:14:48;76.93;;;37.25;;
52816;SDS011;38687;43.330;21.924;2023-12-20T04:17:14;82.75;;;40.38;;
52816;SDS011;38687;43.330;21.924;2023-12-20T04:19:41;87.88;;;40.90;;
52816;SDS011;38687;43.330;21.924;2023-12-20T04:22:06;78.35;;;39.22;;
52816;SDS011;38687;43.330;21.924;2023-12-20T04:24:32;88.25;;;41.35;;
52816;SDS011;38687;43.330;21.924;2023-12-20T04:26:59;99.90;;;44.40;;
52816;SDS011;38687;43.330;21.924;2023-12-20T04:29:24;84.72;;;41.67;;
52816;SDS011;38687;43.330;21.924;2023-12-20T04:31:49;89.88;;;41.95;;
52816;SDS011;38687;43.330;21.924;2023-12-20T04:34:16;95.63;;;47.45;;
52816;SDS011;38687;43.330;21.924;2023-12-20T04:36:42;94.50;;;46.75;;
52816;SDS011;38687;43.330;21.924;2023-12-20T04:39:08;86.45;;;43.25;;
52816;SDS011;38687;43.330;21.924;2023-12-20T04:41:33;95.35;;;46.67;;
52816;SDS011;38687;43.330;21.924;2023-12-20T04:43:58;86.40;;;44.55;;
52816;SDS011;38687;43.330;21.924;2023-12-20T04:46:25;93.57;;;43.22;;
52816;SDS011;38687;43.330;21.924;2023-12-20T04:48:51;115.03;;;51.90;;
52816;SDS011;38687;43.330;21.924;2023-12-20T04:51:16;108.32;;;51.80;;
52816;SDS011;38687;43.330;21.924;2023-12-20T04:53:41;107.38;;;56.75;;
52816;SDS011;38687;43.330;21.924;2023-12-20T04:56:07;110.50;;;52.40;;
52816;SDS011;38687;43.330;21.924;2023-12-20T04:58:32;105.75;;;55.50;;
52816;SDS011;38687;43.330;21.924;2023-12-20T05:00:58;102.53;;;52.20;;
52816;SDS011;38687;43.330;21.924;2023-12-20T05:03:23;105.80;;;52.53;;
52816;SDS011;38687;43.330;21.924;2023-12-20T05:05:49;117.35;;;52.00;;
52816;SDS011;38687;43.330;21.924;2023-12-20T05:08:14;117.40;;;52.25;;
52816;SDS011;38687;43.330;21.924;2023-12-20T05:10:40;134.05;;;54.60;;
52816;SDS011;38687;43.330;21.924;2023-12-20T05:13:06;117.90;;;54.88;;
52816;SDS011;38687;43.330;21.924;2023-12-20T05:15:31;135.80;;;62.17;;
52816;SDS011;38687;43.330;21.924;2023-12-20T05:17:57;113.10;;;53.97;;
52816;SDS011;38687;43.330;21.924;2023-12-20T05:20:22;116.78;;;53.92;;
52816;SDS011;38687;43.330;21.924;2023-12-20T05:22:48;116.32;;;56.38;;
52816;SDS011;38687;43.330;21.924;2023-12-20T05:25:14;123.40;;;57.92;;
52816;SDS011;38687;43.330;21.924;2023-12-20T05:27:40;102.70;;;51.55;;
52816;SDS011;38687;43.330;21.924;2023-12-20T05:30:05;96.60;;;48.13;;
52816;SDS011;38687;43.330;21.924;2023-12-20T05:32:31;95.53;;;48.65;;
52816;SDS011;38687;43.330;21.924;2023-12-20T05:34:57;110.57;;;49.63;;
52816;SDS011;38687;43.330;21.924;2023-12-20T05:37:22;101.20;;;50.33;;
52816;SDS011;38687;43.330;21.924;2023-12-20T05:39:48;111.40;;;50.95;;
52816;SDS011;38687;43.330;21.924;2023-12-20T05:42:13;116.78;;;55.72;;
52816;SDS011;38687;43.330;21.924;2023-12-20T05:44:38;114.22;;;53.80;;
52816;SDS011;38687;43.330;21.924;2023-12-20T05:47:04;122.22;;;54.92;;
52816;SDS011;38687;43.330;21.924;2023-12-20T05:49:29;109.25;;;53.22;;
52816;SDS011;38687;43.330;21.924;2023-12-20T05:51:55;105.18;;;50.13;;
52816;SDS011;38687;43.330;21.924;2023-12-20T05:54:20;107.65;;;52.10;;
52816;SDS011;38687;43.330;21.924;2023-12-20T05:56:46;121.10;;;59.45;;
52816;SDS011;38687;43.330;21.924;2023-12-20T05:59:15;126.55;;;59.08;;
52816;SDS011;38687;43.330;21.924;2023-12-20T06:01:40;130.05;;;60.17;;
52816;SDS011;38687;43.330;21.924;2023-12-20T06:04:06;122.78;;;58.88;;
52816;SDS011;38687;43.330;21.924;2023-12-20T06:06:31;127.15;;;57.55;;
52816;SDS011;38687;43.330;21.924;2023-12-20T06:08:56;199.93;;;83.57;;
52816;SDS011;38687;43.330;21.924;2023-12-20T06:11:22;138.95;;;66.95;;
52816;SDS011;38687;43.330;21.924;2023-12-20T06:13:47;138.45;;;64.30;;
52816;SDS011;38687;43.330;21.924;2023-12-20T06:16:14;122.63;;;58.53;;
52816;SDS011;38687;43.330;21.924;2023-12-20T06:18:40;128.65;;;57.33;;
52816;SDS011;38687;43.330;21.924;2023-12-20T06:21:05;110.22;;;52.47;;
52816;SDS011;38687;43.330;21.924;2023-12-20T06:23:32;110.57;;;53.10;;
52816;SDS011;38687;43.330;21.924;2023-12-20T06:25:57;97.30;;;47.33;;
52816;SDS011;38687;43.330;21.924;2023-12-20T06:28:23;93.63;;;46.30;;
52816;SDS011;38687;43.330;21.924;2023-12-20T06:30:48;102.35;;;50.13;;
52816;SDS011;38687;43.330;21.924;2023-12-20T06:33:14;92.63;;;42.15;;
52816;SDS011;38687;43.330;21.924;2023-12-20T06:35:40;106.95;;;50.63;;
52816;SDS011;38687;43.330;21.924;2023-12-20T06:38:05;96.78;;;44.22;;
52816;SDS011;38687;43.330;21.924;2023-12-20T06:40:31;259.17;;;104.68;;
52816;SDS011;38687;43.330;21.924;2023-12-20T06:42:56;112.68;;;53.53;;
52816;SDS011;38687;43.330;21.924;2023-12-20T06:45:22;105.38;;;50.00;;
52816;SDS011;38687;43.330;21.924;2023-12-20T06:47:53;102.50;;;47.72;;
52816;SDS011;38687;43.330;21.924;2023-12-20T06:50:22;117.50;;;52.17;;
52816;SDS011;38687;43.330;21.924;2023-12-20T06:52:48;127.38;;;55.30;;
52816;SDS011;38687;43.330;21.924;2023-12-20T06:55:13;88.63;;;47.08;;
52816;SDS011;38687;43.330;21.924;2023-12-20T06:57:39;95.35;;;44.08;;
52816;SDS011;38687;43.330;21.924;2023-12-20T07:00:04;114.95;;;53.70;;
52816;SDS011;38687;43.330;21.924;2023-12-20T07:02:30;178.43;;;75.82;;
52816;SDS011;38687;43.330;21.924;2023-12-20T07:04:56;159.77;;;69.68;;
52816;SDS011;38687;43.330;21.924;2023-12-20T07:07:22;134.10;;;65.18;;
52816;SDS011;38687;43.330;21.924;2023-12-20T07:09:49;107.32;;;55.67;;
52816;SDS011;38687;43.330;21.924;2023-12-20T07:12:14;93.80;;;51.78;;
52816;SDS011;38687;43.330;21.924;2023-12-20T07:14:40;79.55;;;43.42;;
52816;SDS011;38687;43.330;21.924;2023-12-20T07:17:06;87.68;;;42.03;;
52816;SDS011;38687;43.330;21.924;2023-12-20T07:19:36;80.60;;;43.22;;
52816;SDS011;38687;43.330;21.924;2023-12-20T07:22:05;89.45;;;48.47;;
52816;SDS011;38687;43.330;21.924;2023-12-20T07:24:31;91.25;;;45.78;;
52816;SDS011;38687;43.330;21.924;2023-12-20T07:26:57;61.58;;;34.38;;
52816;SDS011;38687;43.330;21.924;2023-12-20T07:29:22;63.72;;;36.22;;
52816;SDS011;38687;43.330;21.924;2023-12-20T07:31:48;89.85;;;46.13;;
52816;SDS011;38687;43.330;21.924;2023-12-20T07:34:13;71.45;;;41.90;;
52816;SDS011;38687;43.330;21.924;2023-12-20T07:36:38;83.60;;;44.50;;
52816;SDS011;38687;43.330;21.924;2023-12-20T07:39:04;92.72;;;46.47;;
52816;SDS011;38687;43.330;21.924;2023-12-20T07:41:29;105.53;;;57.70;;
52816;SDS011;38687;43.330;21.924;2023-12-20T07:43:55;84.53;;;45.40;;
52816;SDS011;38687;43.330;21.924;2023-12-20T07:46:21;91.90;;;47.75;;
52816;SDS011;38687;43.330;21.924;2023-12-20T07:48:50;91.18;;;47.10;;
52816;SDS011;38687;43.330;21.924;2023-12-20T07:51:15;94.22;;;49.85;;
52816;SDS011;38687;43.330;21.924;2023-12-20T07:53:41;85.72;;;44.72;;
52816;SDS011;38687;43.330;21.924;2023-12-20T07:56:13;75.63;;;39.20;;
52816;SDS011;38687;43.330;21.924;2023-12-20T07:58:42;70.73;;;34.03;;
52816;SDS011;38687;43.330;21.924;2023-12-20T08:01:07;61.60;;;35.03;;
52816;SDS011;38687;43.330;21.924;2023-12-20T08:03:33;144.55;;;71.32;;
52816;SDS011;38687;43.330;21.924;2023-12-20T08:05:58;110.63;;;62.10;;
52816;SDS011;38687;43.330;21.924;2023-12-20T08:08:24;136.68;;;72.90;;
52816;SDS011;38687;43.330;21.924;2023-12-20T08:10:50;108.13;;;56.88;;
52816;SDS011;38687;43.330;21.924;2023-12-20T08:13:15;101.93;;;54.38;;
52816;SDS011;38687;43.330;21.924;2023-12-20T08:15:41;87.80;;;47.53;;
52816;SDS011;38687;43.330;21.924;2023-12-20T08:18:06;175.27;;;82.35;;
52816;SDS011;38687;43.330;21.924;2023-12-20T08:20:32;92.18;;;51.17;;
52816;SDS011;38687;43.330;21.924;2023-12-20T08:22:57;97.57;;;53.78;;
52816;SDS011;38687;43.330;21.924;2023-12-20T08:25:22;100.28;;;55.10;;
52816;SDS011;38687;43.330;21.924;2023-12-20T08:27:48;109.32;;;56.05;;
52816;SDS011;38687;43.330;21.924;2023-12-20T08:30:13;103.65;;;53.67;;
52816;SDS011;38687;43.330;21.924;2023-12-20T08:32:39;108.03;;;59.58;;
52816;SDS011;38687;43.330;21.924;2023-12-20T08:35:04;111.47;;;58.35;;
52816;SDS011;38687;43.330;21.924;2023-12-20T08:37:31;115.85;;;59.60;;
52816;SDS011;38687;43.330;21.924;2023-12-20T08:39:56;108.85;;;60.72;;
52816;SDS011;38687;43.330;21.924;2023-12-20T08:42:21;128.20;;;65.22;;
52816;SDS011;38687;43.330;21.924;2023-12-20T08:44:49;114.60;;;61.72;;
52816;SDS011;38687;43.330;21.924;2023-12-20T08:47:15;131.00;;;68.97;;
52816;SDS011;38687;43.330;21.924;2023-12-20T08:49:41;138.40;;;74.18;;
52816;SDS011;38687;43.330;21.924;2023-12-20T08:52:06;107.38;;;56.88;;
52816;SDS011;38687;43.330;21.924;2023-12-20T08:54:32;92.45;;;51.67;;
52816;SDS011;38687;43.330;21.924;2023-12-20T08:56:57;94.82;;;50.85;;
52816;SDS011;38687;43.330;21.924;2023-12-20T08:59:23;125.03;;;55.83;;
52816;SDS011;38687;43.330;21.924;2023-12-20T09:01:48;80.25;;;44.80;;
52816;SDS011;38687;43.330;21.924;2023-12-20T09:04:19;98.95;;;47.40;;
52816;SDS011;38687;43.330;21.924;2023-12-20T09:06:44;113.45;;;56.42;;
52816;SDS011;38687;43.330;21.924;2023-12-20T09:09:10;106.05;;;53.50;;
52816;SDS011;38687;43.330;21.924;2023-12-20T09:11:38;86.63;;;43.58;;
52816;SDS011;38687;43.330;21.924;2023-12-20T09:14:04;123.20;;;61.13;;
52816;SDS011;38687;43.330;21.924;2023-12-20T09:16:29;90.40;;;48.70;;
52816;SDS011;38687;43.330;21.924;2023-12-20T09:18:56;103.05;;;56.53;;
52816;SDS011;38687;43.330;21.924;2023-12-20T09:21:22;122.72;;;61.25;;
52816;SDS011;38687;43.330;21.924;2023-12-20T09:23:47;103.60;;;50.05;;
52816;SDS011;38687;43.330;21.924;2023-12-20T09:26:13;105.45;;;49.25;;
52816;SDS011;38687;43.330;21.924;2023-12-20T09:28:38;100.28;;;52.28;;
52816;SDS011;38687;43.330;21.924;2023-12-20T09:31:05;91.72;;;50.33;;
52816;SDS011;38687;43.330;21.924;2023-12-20T09:33:31;87.88;;;48.78;;
52816;SDS011;38687;43.330;21.924;2023-12-20T09:35:57;96.70;;;48.67;;
52816;SDS011;38687;43.330;21.924;2023-12-20T09:38:23;99.38;;;53.38;;
52816;SDS011;38687;43.330;21.924;2023-12-20T09:40:48;98.43;;;53.40;;
52816;SDS011;38687;43.330;21.924;2023-12-20T09:43:14;96.75;;;52.58;;
52816;SDS011;38687;43.330;21.924;2023-12-20T09:45:41;92.70;;;52.80;;
52816;SDS011;38687;43.330;21.924;2023-12-20T09:48:07;95.20;;;50.45;;
52816;SDS011;38687;43.330;21.924;2023-12-20T09:50:32;96.20;;;52.42;;
52816;SDS011;38687;43.330;21.924;2023-12-20T09:53:01;105.75;;;53.60;;
52816;SDS011;38687;43.330;21.924;2023-12-20T09:55:27;113.57;;;60.40;;
52816;SDS011;38687;43.330;21.924;2023-12-20T09:57:55;82.63;;;43.60;;
52816;SDS011;38687;43.330;21.924;2023-12-20T10:00:21;77.57;;;42.47;;
52816;SDS011;38687;43.330;21.924;2023-12-20T10:02:50;67.40;;;39.20;;
52816;SDS011;38687;43.330;21.924;2023-12-20T10:05:18;61.83;;;34.08;;
52816;SDS011;38687;43.330;21.924;2023-12-20T10:07:46;64.68;;;35.60;;
52816;SDS011;38687;43.330;21.924;2023-12-20T10:10:12;64.97;;;35.83;;
52816;SDS011;38687;43.330;21.924;2023-12-20T10:12:38;60.05;;;34.05;;
52816;SDS011;38687;43.330;21.924;2023-12-20T10:15:04;56.95;;;34.03;;
52816;SDS011;38687;43.330;21.924;2023-12-20T10:17:30;49.92;;;32.70;;
52816;SDS011;38687;43.330;21.924;2023-12-20T10:19:57;61.67;;;32.22;;
52816;SDS011;38687;43.330;21.924;2023-12-20T10:22:23;53.75;;;30.42;;
52816;SDS011;38687;43.330;21.924;2023-12-20T10:24:48;69.15;;;50.08;;
52816;SDS011;38687;43.330;21.924;2023-12-20T10:27:14;45.38;;;26.13;;
52816;SDS011;38687;43.330;21.924;2023-12-20T10:29:39;59.10;;;30.75;;
52816;SDS011;38687;43.330;21.924;2023-12-20T10:32:21;48.60;;;26.35;;
52816;SDS011;38687;43.330;21.924;2023-12-20T10:34:48;53.85;;;28.20;;
52816;SDS011;38687;43.330;21.924;2023-12-20T10:37:13;65.25;;;33.25;;
52816;SDS011;38687;43.330;21.924;2023-12-20T10:39:38;66.63;;;34.15;;
52816;SDS011;38687;43.330;21.924;2023-12-20T10:42:04;49.00;;;29.27;;
52816;SDS011;38687;43.330;21.924;2023-12-20T10:44:30;66.43;;;33.72;;
52816;SDS011;38687;43.330;21.924;2023-12-20T10:46:56;64.95;;;32.42;;
52816;SDS011;38687;43.330;21.924;2023-12-20T10:49:23;70.72;;;40.22;;
52816;SDS011;38687;43.330;21.924;2023-12-20T10:51:49;86.97;;;44.97;;
52816;SDS011;38687;43.330;21.924;2023-12-20T10:54:16;89.28;;;47.85;;
52816;SDS011;38687;43.330;21.924;2023-12-20T10:56:42;132.00;;;67.82;;
52816;SDS011;38687;43.330;21.924;2023-12-20T10:59:07;92.20;;;45.22;;
52816;SDS011;38687;43.330;21.924;2023-12-20T11:01:36;116.72;;;56.85;;
52816;SDS011;38687;43.330;21.924;2023-12-20T11:04:02;135.00;;;66.40;;
52816;SDS011;38687;43.330;21.924;2023-12-20T11:11:57;70.35;;;42.72;;
52816;SDS011;38687;43.330;21.924;2023-12-20T11:14:42;64.20;;;37.05;;
52816;SDS011;38687;43.330;21.924;2023-12-20T11:17:14;53.97;;;29.35;;
52816;SDS011;38687;43.330;21.924;2023-12-20T11:22:26;50.95;;;30.20;;
52816;SDS011;38687;43.330;21.924;2023-12-20T11:25:00;68.05;;;36.20;;
52816;SDS011;38687;43.330;21.924;2023-12-20T11:27:33;62.65;;;32.15;;
52816;SDS011;38687;43.330;21.924;2023-12-20T11:29:59;53.45;;;30.70;;
52816;SDS011;38687;43.330;21.924;2023-12-20T11:34:55;56.97;;;30.85;;
52816;SDS011;38687;43.330;21.924;2023-12-20T11:37:21;75.30;;;35.85;;
52816;SDS011;38687;43.330;21.924;2023-12-20T11:39:56;63.22;;;34.92;;
52816;SDS011;38687;43.330;21.924;2023-12-20T11:42:39;75.80;;;37.13;;
52816;SDS011;38687;43.330;21.924;2023-12-20T11:45:15;63.85;;;32.42;;
52816;SDS011;38687;43.330;21.924;2023-12-20T11:47:45;57.60;;;30.75;;
52816;SDS011;38687;43.330;21.924;2023-12-20T11:50:12;49.17;;;28.45;;
52816;SDS011;38687;43.330;21.924;2023-12-20T11:52:37;57.42;;;31.13;;
52816;SDS011;38687;43.330;21.924;2023-12-20T11:55:03;54.92;;;32.75;;
52816;SDS011;38687;43.330;21.924;2023-12-20T11:57:29;59.28;;;31.42;;
52816;SDS011;38687;43.330;21.924;2023-12-20T11:59:58;55.78;;;32.08;;
52816;SDS011;38687;43.330;21.924;2023-12-20T12:02:23;55.47;;;31.80;;
52816;SDS011;38687;43.330;21.924;2023-12-20T12:04:49;64.47;;;38.28;;
52816;SDS011;38687;43.330;21.924;2023-12-20T12:07:18;74.68;;;37.45;;
52816;SDS011;38687;43.330;21.924;2023-12-20T12:09:43;68.15;;;38.42;;
52816;SDS011;38687;43.330;21.924;2023-12-20T12:12:09;80.35;;;41.22;;
52816;SDS011;38687;43.330;21.924;2023-12-20T12:14:35;116.55;;;89.57;;
52816;SDS011;38687;43.330;21.924;2023-12-20T12:17:02;68.95;;;36.45;;
52816;SDS011;38687;43.330;21.924;2023-12-20T12:19:28;64.30;;;35.88;;
52816;SDS011;38687;43.330;21.924;2023-12-20T12:22:04;71.30;;;37.08;;
52816;SDS011;38687;43.330;21.924;2023-12-20T12:24:35;61.08;;;34.05;;
52816;SDS011;38687;43.330;21.924;2023-12-20T12:27:01;74.25;;;35.08;;
52816;SDS011;38687;43.330;21.924;2023-12-20T12:29:27;69.32;;;38.63;;
52816;SDS011;38687;43.330;21.924;2023-12-20T12:31:52;64.93;;;34.60;;
52816;SDS011;38687;43.330;21.924;2023-12-20T12:34:21;65.88;;;37.28;;
52816;SDS011;38687;43.330;21.924;2023-12-20T12:36:48;72.65;;;38.53;;
52816;SDS011;38687;43.330;21.924;2023-12-20T12:39:13;61.47;;;33.88;;
52816;SDS011;38687;43.330;21.924;2023-12-20T12:41:40;71.45;;;33.10;;
52816;SDS011;38687;43.330;21.924;2023-12-20T12:44:06;86.53;;;63.55;;
52816;SDS011;38687;43.330;21.924;2023-12-20T12:46:31;74.45;;;39.60;;
52816;SDS011;38687;43.330;21.924;2023-12-20T12:48:57;75.90;;;40.38;;
52816;SDS011;38687;43.330;21.924;2023-12-20T12:51:23;66.57;;;37.08;;
52816;SDS011;38687;43.330;21.924;2023-12-20T12:53:49;81.03;;;41.60;;
52816;SDS011;38687;43.330;21.924;2023-12-20T12:56:15;66.97;;;38.92;;
52816;SDS011;38687;43.330;21.924;2023-12-20T12:58:40;73.97;;;39.83;;
52816;SDS011;38687;43.330;21.924;2023-12-20T13:01:06;70.57;;;39.10;;
52816;SDS011;38687;43.330;21.924;2023-12-20T13:03:32;77.30;;;39.22;;
52816;SDS011;38687;43.330;21.924;2023-12-20T13:05:57;69.95;;;37.85;;
52816;SDS011;38687;43.330;21.924;2023-12-20T13:08:23;69.18;;;39.30;;
52816;SDS011;38687;43.330;21.924;2023-12-20T13:10:49;63.60;;;35.42;;
52816;SDS011;38687;43.330;21.924;2023-12-20T13:13:14;71.95;;;38.78;;
52816;SDS011;38687;43.330;21.924;2023-12-20T13:15:40;74.65;;;61.50;;
52816;SDS011;38687;43.330;21.924;2023-12-20T13:18:05;73.57;;;60.70;;
52816;SDS011;38687;43.330;21.924;2023-12-20T13:20:31;69.30;;;38.20;;
52816;SDS011;38687;43.330;21.924;2023-12-20T13:22:58;90.82;;;42.45;;
52816;SDS011;38687;43.330;21.924;2023-12-20T13:25:23;96.07;;;47.58;;
52816;SDS011;38687;43.330;21.924;2023-12-20T13:27:49;100.78;;;71.80;;
52816;SDS011;38687;43.330;21.924;2023-12-20T13:30:16;81.45;;;43.40;;
52816;SDS011;38687;43.330;21.924;2023-12-20T13:32:41;92.78;;;71.03;;
52816;SDS011;38687;43.330;21.924;2023-12-20T13:35:07;119.38;;;52.35;;
52816;SDS011;38687;43.330;21.924;2023-12-20T13:37:32;136.52;;;95.25;;
52816;SDS011;38687;43.330;21.924;2023-12-20T13:39:58;159.27;;;109.40;;
52816;SDS011;38687;43.330;21.924;2023-12-20T13:42:23;127.97;;;92.18;;
52816;SDS011;38687;43.330;21.924;2023-12-20T13:44:49;84.93;;;47.45;;
52816;SDS011;38687;43.330;21.924;2023-12-20T13:47:14;100.28;;;48.55;;
52816;SDS011;38687;43.330;21.924;2023-12-20T13:49:39;121.68;;;60.55;;
52816;SDS011;38687;43.330;21.924;2023-12-20T13:52:05;216.43;;;97.05;;
52816;SDS011;38687;43.330;21.924;2023-12-20T13:54:30;152.43;;;111.13;;
52816;SDS011;38687;43.330;21.924;2023-12-20T13:56:56;227.27;;;101.78;;
52816;SDS011;38687;43.330;21.924;2023-12-20T13:59:22;138.60;;;66.88;;
52816;SDS011;38687;43.330;21.924;2023-12-20T14:01:49;152.75;;;110.10;;
52816;SDS011;38687;43.330;21.924;2023-12-20T14:04:15;105.78;;;81.97;;
52816;SDS011;38687;43.330;21.924;2023-12-20T14:06:41;144.55;;;68.65;;
52816;SDS011;38687;43.330;21.924;2023-12-20T14:09:07;133.05;;;70.20;;